Time;durP1;ratioP1;P1;durP2;ratioP2;P2;SDS_P1;SDS_P2;PMS_P1;PMS_P2;Temp;Humidity;BMP_temperature;BMP_pressure;BME280_temperature;BME280_humidity;BME280_pressure;Samples;Min_cycle;Max_cycle;Signal;HPM_P1;HPM_P2
2022/10/29 00:03:31;;;;;;;0.00;0.00;;;;;;;17.40;62.53;98680.59;8282053;28;20262;-82
2022/10/29 00:07:34;;;;;;;0.00;0.00;;;;;;;17.31;62.84;98679.41;8281863;28;20241;-82
2022/10/29 00:11:37;;;;;;;0.00;0.00;;;;;;;17.33;62.80;98688.00;8282029;28;20227;-81
2022/10/29 00:15:40;;;;;;;0.00;0.00;;;;;;;17.27;62.94;98683.13;8282617;28;20247;-83
2022/10/29 00:19:45;;;;;;;0.00;0.00;;;;;;;17.27;62.94;98674.44;8281842;28;20258;-82
2022/10/29 00:23:47;;;;;;;0.00;0.00;;;;;;;17.19;63.07;98673.13;8282665;28;20249;-80
2022/10/29 00:27:50;;;;;;;0.00;0.00;;;;;;;17.24;62.82;98665.00;8288294;28;20232;-80
2022/10/29 00:31:53;;;;;;;0.00;0.00;;;;;;;17.22;63.28;98659.00;8287943;28;20236;-80
2022/10/29 00:35:59;;;;;;;0.00;0.00;;;;;;;17.27;63.09;98659.59;8288377;28;20233;-81
2022/10/29 00:40:02;;;;;;;0.00;0.00;;;;;;;17.18;63.40;98670.59;8288803;28;20461;-82
2022/10/29 00:44:30;;;;;;;0.00;0.00;;;;;;;17.13;62.73;98670.88;8288259;28;20244;-81
2022/10/29 00:48:36;;;;;;;0.00;0.00;;;;;;;16.99;63.15;98676.09;8287845;28;20241;-80
2022/10/29 00:52:44;;;;;;;0.00;0.00;;;;;;;16.99;62.60;98669.06;8288186;28;20291;-82
2022/10/29 00:56:49;;;;;;;0.00;0.00;;;;;;;16.92;62.82;98667.75;8288126;28;20242;-83
2022/10/29 01:00:51;;;;;;;0.00;0.00;;;;;;;16.96;62.64;98668.41;8287861;28;20257;-81
2022/10/29 01:04:54;;;;;;;0.00;0.00;;;;;;;16.90;62.54;98663.56;8286880;28;20237;-81
2022/10/29 01:08:58;;;;;;;0.00;0.00;;;;;;;16.83;63.33;98657.00;8286927;28;20238;-82
2022/10/29 01:13:18;;;;;;;0.00;0.00;;;;;;;16.97;63.22;98655.25;8286830;28;20256;-81
2022/10/29 01:17:27;;;;;;;0.00;0.00;;;;;;;16.94;62.87;98641.50;8286794;28;20261;-83
2022/10/29 01:21:45;;;;;;;0.00;0.00;;;;;;;16.87;63.42;98637.56;8286601;28;20427;-83
2022/10/29 01:26:04;;;;;;;0.00;0.00;;;;;;;16.88;63.75;98661.03;8286004;28;20312;-82
2022/10/29 01:30:13;;;;;;;0.00;0.00;;;;;;;16.83;64.07;98644.78;8286159;28;20235;-82
2022/10/29 01:34:22;;;;;;;0.00;0.00;;;;;;;16.88;63.39;98650.56;8286346;28;20238;-83
2022/10/29 01:38:33;;;;;;;0.00;0.00;;;;;;;16.80;63.32;98647.53;8284942;28;20506;-82
2022/10/29 01:42:38;;;;;;;0.00;0.00;;;;;;;16.69;63.35;98636.84;8286452;28;20230;-82
2022/10/29 01:46:44;;;;;;;0.00;0.00;;;;;;;16.73;63.98;98635.75;8285729;28;20247;-82
2022/10/29 01:50:51;;;;;;;0.00;0.00;;;;;;;16.69;63.88;98640.31;8285789;28;20236;-82
2022/10/29 01:54:54;;;;;;;0.00;0.00;;;;;;;16.73;63.60;98633.97;8285198;28;20242;-82
2022/10/29 01:58:59;;;;;;;0.00;0.00;;;;;;;16.67;63.48;98630.88;8285315;28;20244;-82
2022/10/29 02:03:15;;;;;;;0.00;0.00;;;;;;;16.59;63.38;98634.78;8285219;28;20526;-82
2022/10/29 02:07:31;;;;;;;0.00;0.00;;;;;;;16.70;63.08;98630.72;8285119;28;20252;-82
2022/10/29 02:11:41;;;;;;;0.00;0.00;;;;;;;16.64;63.58;98633.66;8284997;28;20226;-82
2022/10/29 02:15:47;;;;;;;0.00;0.00;;;;;;;16.58;63.31;98621.78;8284944;28;20241;-83
2022/10/29 02:19:50;;;;;;;0.00;0.00;;;;;;;16.59;63.22;98632.16;8284819;28;20235;-83
2022/10/29 02:23:54;;;;;;;0.00;0.00;;;;;;;16.55;63.41;98622.81;8284216;28;20268;-82
2022/10/29 02:27:57;;;;;;;0.00;0.00;;;;;;;16.50;63.21;98619.63;8284846;28;20444;-80
2022/10/29 02:32:00;;;;;;;0.00;0.00;;;;;;;16.45;63.42;98616.47;8284629;28;20245;-82
2022/10/29 02:36:03;;;;;;;0.00;0.00;;;;;;;16.42;63.06;98621.84;8284578;28;20289;-82
2022/10/29 02:40:09;;;;;;;0.00;0.00;;;;;;;16.40;63.20;98616.69;8284508;28;20237;-82
2022/10/29 02:44:12;;;;;;;0.00;0.00;;;;;;;16.41;63.75;98605.34;8284591;28;20245;-82
2022/10/29 02:48:14;;;;;;;0.00;0.00;;;;;;;16.36;64.37;98611.75;8283985;28;20237;-82
2022/10/29 02:52:17;;;;;;;0.00;0.00;;;;;;;16.38;64.10;98605.50;8284169;28;20237;-83
2022/10/29 02:56:21;;;;;;;0.00;0.00;;;;;;;16.38;64.36;98602.88;8284218;28;20233;-82
2022/10/29 03:00:24;;;;;;;0.00;0.00;;;;;;;16.18;64.74;98597.94;8284415;28;20248;-83
2022/10/29 03:04:27;;;;;;;0.10;0.10;;;;;;;16.33;64.36;98601.47;8283692;28;20238;-82
2022/10/29 03:08:29;;;;;;;0.00;0.00;;;;;;;16.34;64.89;98603.16;8283973;28;20248;-83
2022/10/29 03:12:34;;;;;;;0.00;0.00;;;;;;;16.38;65.04;98589.81;8283671;28;20239;-82
2022/10/29 03:16:37;;;;;;;0.00;0.00;;;;;;;16.35;65.22;98597.00;8283301;28;20267;-83
2022/10/29 03:20:40;;;;;;;0.10;0.10;;;;;;;16.40;65.58;98597.56;8283274;28;20546;-83
2022/10/29 03:24:42;;;;;;;0.00;0.00;;;;;;;16.38;65.22;98600.28;8283065;28;20260;-83
2022/10/29 03:28:47;;;;;;;0.00;0.00;;;;;;;16.31;64.46;98606.78;8282865;28;20245;-83
2022/10/29 03:32:50;;;;;;;0.07;0.07;;;;;;;16.26;64.09;98605.34;8282991;28;20549;-83
2022/10/29 03:36:52;;;;;;;0.00;0.00;;;;;;;16.24;63.45;98602.84;8282079;28;20241;-81
2022/10/29 03:40:55;;;;;;;0.00;0.00;;;;;;;16.13;63.00;98607.84;8291749;28;20240;-82
2022/10/29 03:45:00;;;;;;;0.00;0.00;;;;;;;16.06;63.00;98609.13;8282745;28;20571;-80
2022/10/29 03:49:03;;;;;;;0.00;0.00;;;;;;;15.95;62.97;98615.78;8282145;28;20292;-82
2022/10/29 03:53:05;;;;;;;0.00;0.00;;;;;;;15.90;63.34;98614.38;8282220;28;20232;-84
2022/10/29 03:57:08;;;;;;;0.00;0.00;;;;;;;15.98;63.22;98609.56;8282152;28;20296;-82
2022/10/29 04:01:13;;;;;;;0.00;0.00;;;;;;;16.02;63.22;98617.13;8281634;28;20233;-82
2022/10/29 04:05:16;;;;;;;0.00;0.00;;;;;;;16.00;62.68;98618.13;8282113;28;20346;-83
2022/10/29 04:09:19;;;;;;;0.10;0.10;;;;;;;15.95;63.15;98636.66;8281926;28;20240;-83
2022/10/29 04:13:21;;;;;;;0.00;0.00;;;;;;;15.93;62.85;98635.06;8281820;28;20280;-83
2022/10/29 04:17:26;;;;;;;0.00;0.00;;;;;;;15.87;62.92;98638.03;8281869;28;20256;-82
2022/10/29 04:21:29;;;;;;;0.00;0.00;;;;;;;15.83;62.72;98634.75;8281813;28;20230;-83
2022/10/29 04:25:56;;;;;;;0.00;0.00;;;;;;;15.74;63.24;98641.31;8281266;28;20292;-82
2022/10/29 04:30:18;;;;;;;0.10;0.10;;;;;;;15.66;63.86;98640.84;8281220;28;20292;-83
2022/10/29 04:34:23;;;;;;;0.00;0.00;;;;;;;15.65;64.18;98647.03;8281606;28;20233;-83
2022/10/29 04:38:26;;;;;;;0.10;0.10;;;;;;;15.73;63.60;98649.22;8281428;28;20248;-83
2022/10/29 04:42:29;;;;;;;0.00;0.00;;;;;;;15.71;63.40;98649.28;8281534;28;20236;-83
2022/10/29 04:46:31;;;;;;;0.00;0.00;;;;;;;15.63;63.16;98660.16;8281041;28;20249;-83
2022/10/29 04:50:37;;;;;;;0.00;0.00;;;;;;;15.69;62.85;98648.53;8281347;28;20234;-82
2022/10/29 04:54:40;;;;;;;0.00;0.00;;;;;;;15.63;63.34;98654.06;8281517;28;20237;-82
2022/10/29 04:58:43;;;;;;;0.00;0.00;;;;;;;15.63;63.28;98641.00;8281498;28;20250;-82
2022/10/29 05:02:48;;;;;;;0.00;0.00;;;;;;;15.70;64.20;98644.16;8280943;28;20675;-82
2022/10/29 05:06:52;;;;;;;0.00;0.00;;;;;;;15.76;64.21;98638.63;8281117;28;20560;-82
2022/10/29 05:10:55;;;;;;;0.00;0.00;;;;;;;15.81;65.08;98637.44;8275513;28;20317;-81
2022/10/29 05:14:58;;;;;;;0.07;0.07;;;;;;;15.87;64.39;98641.47;8287359;28;20233;-79
2022/10/29 05:19:01;;;;;;;0.00;0.00;;;;;;;15.91;65.12;98636.94;8287215;28;20244;-82
2022/10/29 05:23:08;;;;;;;0.10;0.10;;;;;;;15.90;65.57;98632.66;8286953;28;20237;-83
2022/10/29 05:27:10;;;;;;;0.00;0.00;;;;;;;15.93;64.89;98640.31;8286702;28;20548;-82
2022/10/29 05:31:13;;;;;;;0.00;0.00;;;;;;;15.96;64.38;98638.38;8286201;28;20237;-82
2022/10/29 05:35:16;;;;;;;0.00;0.00;;;;;;;15.87;64.28;98638.03;8285772;28;20241;-82
2022/10/29 05:39:20;;;;;;;0.00;0.00;;;;;;;15.82;64.17;98631.31;8285765;28;20236;-83
2022/10/29 05:43:23;;;;;;;0.00;0.00;;;;;;;15.90;63.63;98636.09;8285023;28;20221;-83
2022/10/29 05:47:25;;;;;;;0.00;0.00;;;;;;;15.90;63.29;98635.25;8285832;28;20229;-82
2022/10/29 05:51:28;;;;;;;0.00;0.00;;;;;;;15.83;63.30;98632.13;8285788;28;20252;-82
2022/10/29 05:55:34;;;;;;;0.00;0.00;;;;;;;15.83;63.56;98630.34;8285451;28;20245;-82
2022/10/29 05:59:37;;;;;;;0.00;0.00;;;;;;;15.78;63.51;98632.41;8285523;28;20245;-82
2022/10/29 06:03:39;;;;;;;0.00;0.00;;;;;;;15.74;63.62;98637.84;8285227;28;20233;-82
2022/10/29 06:07:42;;;;;;;0.00;0.00;;;;;;;15.71;63.59;98649.28;8285068;28;20237;-82
2022/10/29 06:11:46;;;;;;;0.00;0.00;;;;;;;15.71;63.96;98646.69;8285074;28;20245;-83
2022/10/29 06:15:50;;;;;;;0.00;0.00;;;;;;;15.70;63.87;98647.59;8285440;28;20276;-82
2022/10/29 06:19:53;;;;;;;0.00;0.00;;;;;;;15.56;65.85;98650.97;8276902;28;20241;-81
2022/10/29 06:23:55;;;;;;;0.00;0.00;;;;;;;15.63;66.18;98634.03;8284334;28;20240;-82
2022/10/29 06:28:01;;;;;;;0.00;0.00;;;;;;;15.87;65.68;98631.03;8284895;28;20241;-82
2022/10/29 06:32:04;;;;;;;0.00;0.00;;;;;;;15.80;65.89;98638.38;8284605;28;20257;-85
2022/10/29 06:36:07;;;;;;;0.00;0.00;;;;;;;15.90;65.97;98646.53;8285126;28;20238;-83
2022/10/29 06:40:11;;;;;;;0.00;0.00;;;;;;;15.78;66.60;98653.28;8284595;28;20233;-83
2022/10/29 06:44:15;;;;;;;0.00;0.00;;;;;;;15.55;67.33;98643.22;8285232;28;20230;-83
2022/10/29 06:48:18;;;;;;;0.00;0.00;;;;;;;15.64;67.76;98630.50;8284274;28;20233;-83
2022/10/29 06:52:24;;;;;;;0.00;0.00;;;;;;;15.64;67.84;98632.28;8284464;28;20418;-83
2022/10/29 06:56:28;;;;;;;0.00;0.00;;;;;;;15.62;68.10;98626.28;8284457;28;20516;-83
2022/10/29 07:00:33;;;;;;;0.10;0.10;;;;;;;15.58;68.71;98628.22;8283935;28;20229;-83
2022/10/29 07:04:36;;;;;;;0.00;0.00;;;;;;;15.83;67.23;98632.13;8283324;28;20237;-84
2022/10/29 07:08:38;;;;;;;0.00;0.00;;;;;;;16.07;71.45;98626.47;8283254;28;20237;-83
2022/10/29 07:12:41;;;;;;;0.00;0.00;;;;;;;16.06;66.93;98630.03;8283465;28;20345;-83
2022/10/29 07:16:46;;;;;;;0.00;0.00;;;;;;;16.28;67.96;98634.84;8282964;28;20233;-83
2022/10/29 07:20:49;;;;;;;0.10;0.00;;;;;;;16.13;67.09;98637.44;8283131;28;20431;-82
2022/10/29 07:24:52;;;;;;;0.00;0.00;;;;;;;16.15;67.08;98640.78;8283234;28;20284;-80
2022/10/29 07:28:58;;;;;;;0.00;0.00;;;;;;;16.23;66.79;98646.41;8282744;28;20536;-84
2022/10/29 07:33:02;;;;;;;0.00;0.00;;;;;;;16.23;66.96;98645.56;8283417;28;20260;-85
2022/10/29 07:37:05;;;;;;;0.00;0.00;;;;;;;16.29;66.87;98652.22;8282983;28;20439;-86
2022/10/29 07:41:08;;;;;;;0.00;0.00;;;;;;;16.33;66.89;98657.19;8283109;28;20233;-84
2022/10/29 07:45:11;;;;;;;0.00;0.00;;;;;;;16.29;67.25;98654.84;8282353;28;20233;-83
2022/10/29 07:49:15;;;;;;;0.00;0.00;;;;;;;16.08;68.19;98660.34;8281949;28;20284;-82
2022/10/29 07:53:17;;;;;;;0.00;0.00;;;;;;;15.88;70.07;98658.84;8282213;28;20229;-83
2022/10/29 07:57:21;;;;;;;0.00;0.00;;;;;;;15.74;69.86;98659.59;8282134;28;20233;-83
2022/10/29 08:01:24;;;;;;;0.00;0.00;;;;;;;16.32;67.84;98658.13;8281828;28;20233;-83
2022/10/29 08:05:29;;;;;;;0.00;0.00;;;;;;;16.53;67.04;98658.66;8281836;28;20241;-83
2022/10/29 08:09:32;;;;;;;0.00;0.00;;;;;;;16.38;68.06;98657.78;8282070;28;20245;-83
2022/10/29 08:13:35;;;;;;;0.00;0.00;;;;;;;16.58;66.97;98653.16;8282203;28;20244;-83
2022/10/29 08:17:37;;;;;;;0.00;0.00;;;;;;;16.80;66.74;98643.13;8282509;28;20234;-83
2022/10/29 08:21:42;;;;;;;0.00;0.00;;;;;;;16.79;66.45;98648.44;8281822;28;20535;-83
2022/10/29 08:25:44;;;;;;;0.00;0.00;;;;;;;16.81;66.46;98652.69;8281536;28;20237;-82
2022/10/29 08:29:47;;;;;;;0.00;0.00;;;;;;;16.99;66.33;98657.78;8281501;28;20234;-83
2022/10/29 08:33:50;;;;;;;0.00;0.00;;;;;;;16.90;66.55;98664.38;8281589;28;20238;-83
2022/10/29 08:37:54;;;;;;;0.00;0.00;;;;;;;16.93;66.72;98658.16;8281172;28;20237;-82
2022/10/29 08:42:05;;;;;;;0.00;0.00;;;;;;;17.02;66.61;98654.13;8281592;28;20229;-82
2022/10/29 08:46:17;;;;;;;0.00;0.00;;;;;;;16.97;67.23;98660.47;8285071;28;20561;-85
2022/10/29 08:50:24;;;;;;;0.00;0.00;;;;;;;17.35;66.35;98666.97;8288188;28;20249;-83
2022/10/29 08:54:31;;;;;;;0.00;0.00;;;;;;;17.55;65.25;98665.72;8288149;28;20506;-83
2022/10/29 08:58:37;;;;;;;0.00;0.00;;;;;;;17.55;65.04;98669.22;8288032;28;20229;-86
2022/10/29 09:02:40;;;;;;;0.00;0.00;;;;;;;17.36;65.92;98674.75;8287939;28;20555;-79
2022/10/29 09:06:46;;;;;;;0.00;0.00;;;;;;;17.41;65.40;98669.22;8287364;28;20242;-82
2022/10/29 09:10:54;;;;;;;0.00;0.00;;;;;;;17.29;66.42;98668.19;8287569;28;20242;-82
2022/10/29 09:15:18;;;;;;;0.00;0.00;;;;;;;17.26;66.61;98668.34;8286734;28;20233;-82
2022/10/29 09:19:32;;;;;;;0.00;0.00;;;;;;;17.48;66.36;98673.13;8286723;28;20233;-81
2022/10/29 09:23:54;;;;;;;0.00;0.00;;;;;;;17.54;65.80;98671.91;8286362;28;20230;-81
2022/10/29 09:28:11;;;;;;;0.00;0.00;;;;;;;17.19;67.05;98675.75;8285995;28;20561;-82
2022/10/29 09:32:19;;;;;;;0.00;0.00;;;;;;;17.66;65.76;98670.31;8286766;28;20284;-86
2022/10/29 09:36:24;;;;;;;0.00;0.00;;;;;;;17.54;67.16;98664.06;8286733;28;20232;-84
2022/10/29 09:40:31;;;;;;;0.00;0.00;;;;;;;17.94;65.37;98656.34;8288519;28;20436;-83
2022/10/29 09:44:40;;;;;;;0.00;0.00;;;;;;;18.18;64.79;98653.94;8286338;28;20231;-84
2022/10/29 09:48:48;;;;;;;0.00;0.00;;;;;;;18.90;62.74;98653.59;8286395;28;20552;-83
2022/10/29 09:52:52;;;;;;;0.00;0.00;;;;;;;20.26;59.90;98645.81;8286279;28;20432;-84
2022/10/29 09:56:56;;;;;;;0.00;0.00;;;;;;;20.89;57.34;98648.22;8285115;28;20245;-80
2022/10/29 10:01:00;;;;;;;0.00;0.00;;;;;;;21.51;55.30;98641.69;8286365;28;20307;-79
2022/10/29 10:05:05;;;;;;;0.00;0.00;;;;;;;21.59;53.81;98641.06;8285570;28;20561;-81
2022/10/29 10:09:08;;;;;;;0.00;0.00;;;;;;;22.19;52.72;98634.47;8286049;28;20260;-84
2022/10/29 10:13:13;;;;;;;0.00;0.00;;;;;;;22.71;50.84;98637.28;8285523;28;20245;-79
2022/10/29 10:17:21;;;;;;;0.00;0.00;;;;;;;22.88;50.26;98627.09;8285341;28;20232;-79
2022/10/29 10:21:25;;;;;;;0.00;0.00;;;;;;;23.06;50.60;98633.50;8285056;28;20317;-80
2022/10/29 10:25:32;;;;;;;0.00;0.00;;;;;;;22.73;50.83;98621.31;8285497;28;20431;-79
2022/10/29 10:29:35;;;;;;;0.00;0.00;;;;;;;22.65;51.50;98622.78;8285464;28;20229;-77
2022/10/29 10:33:49;;;;;;;0.00;0.00;;;;;;;22.51;53.51;98617.00;8285024;28;20237;-76
2022/10/29 10:37:52;;;;;;;0.00;0.00;;;;;;;22.98;51.40;98614.78;8285316;28;20527;-76
2022/10/29 10:41:56;;;;;;;0.00;0.00;;;;;;;23.39;50.73;98616.53;8284414;28;20250;-80
2022/10/29 10:46:00;;;;;;;0.00;0.00;;;;;;;23.73;51.47;98612.75;8284306;28;20398;-80
2022/10/29 10:50:13;;;;;;;0.00;0.00;;;;;;;23.37;51.51;98607.91;8284363;28;20240;-83
2022/10/29 10:54:31;;;;;;;0.00;0.00;;;;;;;22.89;52.04;98605.84;8284123;28;20438;-82
2022/10/29 10:58:36;;;;;;;0.00;0.00;;;;;;;22.91;52.20;98598.63;8284034;28;20292;-81
2022/10/29 11:02:47;;;;;;;0.00;0.00;;;;;;;22.86;52.41;98602.63;8283942;28;20237;-79
2022/10/29 11:06:53;;;;;;;0.00;0.00;;;;;;;22.89;52.57;98594.47;8283606;28;20234;-81
2022/10/29 11:10:58;;;;;;;0.00;0.00;;;;;;;22.92;52.83;98594.19;8283020;28;20297;-78
2022/10/29 11:15:06;;;;;;;0.00;0.00;;;;;;;22.80;52.72;98588.97;8283839;28;20239;-77
2022/10/29 11:19:16;;;;;;;0.00;0.00;;;;;;;22.73;53.17;98579.94;8283210;28;20233;-78
2022/10/29 11:23:35;;;;;;;0.00;0.00;;;;;;;22.77;53.35;98583.97;8283162;28;20241;-81
2022/10/29 11:27:45;;;;;;;0.00;0.00;;;;;;;22.49;54.14;98579.34;8283133;28;20237;-79
2022/10/29 11:31:55;;;;;;;0.00;0.00;;;;;;;22.41;54.32;98582.63;8282942;28;20237;-80
2022/10/29 11:36:03;;;;;;;0.00;0.00;;;;;;;22.36;55.13;98588.28;8282483;28;20286;-82
2022/10/29 11:40:12;;;;;;;0.00;0.00;;;;;;;22.43;54.97;98575.44;8282853;28;20238;-83
2022/10/29 11:44:19;;;;;;;0.00;0.00;;;;;;;22.49;54.56;98572.25;8283405;28;20227;-81
2022/10/29 11:48:32;;;;;;;0.00;0.00;;;;;;;22.50;54.55;98563.38;8282778;28;20241;-82
2022/10/29 11:52:40;;;;;;;0.00;0.00;;;;;;;22.47;54.91;98557.53;8282219;28;20233;-83
2022/10/29 11:56:50;;;;;;;0.00;0.00;;;;;;;22.27;55.26;98554.75;8281767;28;20237;-80
2022/10/29 12:01:00;;;;;;;0.00;0.00;;;;;;;22.14;55.32;98547.00;8281862;28;20518;-78
2022/10/29 12:05:06;;;;;;;0.00;0.00;;;;;;;21.91;56.06;98546.22;8281825;28;20429;-79
2022/10/29 12:09:38;;;;;;;0.00;0.00;;;;;;;22.15;54.99;98534.63;8281813;28;20289;-79
2022/10/29 12:13:51;;;;;;;0.00;0.00;;;;;;;22.46;54.09;98527.66;8281606;28;20263;-80
2022/10/29 12:18:03;;;;;;;0.00;0.00;;;;;;;22.61;53.55;98521.06;8281237;28;20233;-78
2022/10/29 12:22:15;;;;;;;0.00;0.00;;;;;;;22.70;53.71;98522.09;8280793;28;20233;-79
2022/10/29 12:26:24;;;;;;;0.00;0.00;;;;;;;22.43;54.57;98509.47;8281468;28;20237;-79
2022/10/29 12:30:32;;;;;;;0.00;0.00;;;;;;;22.30;54.22;98508.81;8281677;28;20240;-79
2022/10/29 12:34:40;;;;;;;0.00;0.00;;;;;;;22.22;54.64;98502.34;8281476;28;20368;-81
2022/10/29 12:38:49;;;;;;;0.00;0.00;;;;;;;22.50;55.07;98500.03;8279622;28;20238;-79
2022/10/29 12:42:55;;;;;;;0.00;0.00;;;;;;;22.62;54.37;98493.72;8276670;28;20471;-80
2022/10/29 12:47:03;;;;;;;0.00;0.00;;;;;;;22.77;54.34;98490.72;8280114;28;20237;-81
2022/10/29 12:51:12;;;;;;;0.00;0.00;;;;;;;22.80;54.13;98493.09;8280853;28;20234;-81
2022/10/29 12:55:17;;;;;;;0.00;0.00;;;;;;;22.83;54.79;98488.38;8281337;28;20517;-81
2022/10/29 12:59:32;;;;;;;0.00;0.00;;;;;;;23.05;54.37;98475.16;8280819;28;20257;-81
2022/10/29 13:04:02;;;;;;;0.00;0.00;;;;;;;22.86;53.55;98473.25;8280796;28;20236;-82
2022/10/29 13:08:29;;;;;;;0.00;0.00;;;;;;;22.82;53.99;98465.59;8280443;28;20254;-82
2022/10/29 13:12:56;;;;;;;0.00;0.00;;;;;;;23.03;53.89;98467.34;8281148;28;20236;-81
2022/10/29 13:16:59;;;;;;;0.00;0.00;;;;;;;22.73;54.21;98457.63;8280556;28;20238;-80
2022/10/29 13:21:04;;;;;;;0.00;0.00;;;;;;;22.93;54.15;98459.38;8280724;28;20241;-81
2022/10/29 13:25:49;;;;;;;0.00;0.00;;;;;;;22.98;54.09;98458.97;8281397;28;20416;-81
2022/10/29 13:30:17;;;;;;;0.00;0.00;;;;;;;22.98;53.96;98453.69;8280635;28;20246;-81
2022/10/29 13:34:54;;;;;;;0.00;0.00;;;;;;;23.22;53.89;98448.91;8284947;28;20236;-81
2022/10/29 13:39:03;;;;;;;0.00;0.00;;;;;;;22.82;54.51;98449.75;8285791;28;20244;-79
2022/10/29 13:43:17;;;;;;;0.00;0.00;;;;;;;23.04;54.01;98445.28;8285827;28;20403;-81
2022/10/29 13:47:21;;;;;;;0.00;0.00;;;;;;;23.16;53.74;98444.16;8285513;28;20233;-80
2022/10/29 13:51:30;;;;;;;0.00;0.00;;;;;;;23.25;53.48;98444.31;8285874;28;20294;-80
2022/10/29 13:55:36;;;;;;;0.00;0.00;;;;;;;23.33;53.38;98440.03;8285961;28;20250;-79
2022/10/29 13:59:43;;;;;;;0.00;0.00;;;;;;;23.50;52.83;98437.69;8285422;28;20292;-77
2022/10/29 14:03:57;;;;;;;0.00;0.00;;;;;;;23.15;53.48;98447.78;8285436;28;20444;-77
2022/10/29 14:08:04;;;;;;;0.00;0.00;;;;;;;23.19;53.90;98429.88;8285095;28;20242;-78
2022/10/29 14:12:10;;;;;;;0.00;0.00;;;;;;;23.22;53.55;98435.69;8285264;28;20563;-78
2022/10/29 14:16:14;;;;;;;0.00;0.00;;;;;;;23.22;53.67;98433.03;8284996;28;20241;-78
2022/10/29 14:20:22;;;;;;;0.00;0.00;;;;;;;23.07;54.11;98426.50;8286002;28;20237;-78
2022/10/29 14:24:25;;;;;;;0.00;0.00;;;;;;;22.84;54.38;98431.97;8285173;28;20232;-79
2022/10/29 14:28:30;;;;;;;0.00;0.00;;;;;;;22.88;54.67;98427.25;8285072;28;20242;-78
2022/10/29 14:32:38;;;;;;;0.00;0.00;;;;;;;22.88;54.37;98424.59;8285407;28;20240;-78
2022/10/29 14:36:42;;;;;;;0.00;0.00;;;;;;;22.76;55.42;98420.41;8284340;28;20421;-78
2022/10/29 14:40:46;;;;;;;0.00;0.00;;;;;;;22.65;55.35;98426.63;8284808;28;20332;-78
2022/10/29 14:44:53;;;;;;;0.00;0.00;;;;;;;22.54;55.45;98422.28;8284522;28;20240;-78
2022/10/29 14:49:03;;;;;;;0.00;0.00;;;;;;;22.49;56.48;98429.75;8283696;28;20244;-79
2022/10/29 14:53:07;;;;;;;0.00;0.00;;;;;;;22.30;56.21;98430.50;8284719;28;20241;-80
2022/10/29 14:57:13;;;;;;;0.00;0.00;;;;;;;22.32;56.34;98425.09;8284441;28;20235;-80
2022/10/29 15:01:19;;;;;;;0.00;0.00;;;;;;;22.13;57.42;98428.44;8283812;28;20241;-80
2022/10/29 15:05:25;;;;;;;0.00;0.00;;;;;;;22.14;57.23;98423.03;8283787;28;20528;-80
2022/10/29 15:09:28;;;;;;;0.00;0.00;;;;;;;21.93;57.86;98419.56;8283568;28;20247;-79
2022/10/29 15:13:32;;;;;;;0.00;0.00;;;;;;;22.01;57.60;98417.97;8283641;28;20532;-78
2022/10/29 15:17:41;;;;;;;0.00;0.00;;;;;;;22.00;57.21;98420.72;8284065;28;20233;-81
2022/10/29 15:21:44;;;;;;;0.00;0.00;;;;;;;21.93;57.54;98417.75;8284423;28;20229;-81
2022/10/29 15:25:49;;;;;;;0.00;0.00;;;;;;;21.84;57.96;98415.91;8283347;28;20235;-81
2022/10/29 15:29:53;;;;;;;0.00;0.00;;;;;;;21.82;57.95;98418.66;8282523;28;20262;-78
2022/10/29 15:34:03;;;;;;;0.00;0.00;;;;;;;21.75;57.74;98422.75;8282892;28;20233;-80
2022/10/29 15:38:09;;;;;;;0.00;0.00;;;;;;;21.72;58.13;98428.28;8283065;28;20252;-79
2022/10/29 15:42:20;;;;;;;0.00;0.00;;;;;;;21.68;58.22;98426.88;8282945;28;20525;-84
2022/10/29 15:46:28;;;;;;;0.00;0.00;;;;;;;21.60;59.18;98416.13;8279609;28;20241;-79
2022/10/29 15:50:44;;;;;;;0.00;0.00;;;;;;;21.57;59.19;98411.97;8277075;28;20233;-79
2022/10/29 15:54:47;;;;;;;0.00;0.00;;;;;;;21.49;58.63;98411.72;8281295;28;20252;-80
2022/10/29 15:58:51;;;;;;;0.00;0.00;;;;;;;21.44;59.34;98406.84;8281890;28;20249;-79
2022/10/29 16:02:55;;;;;;;0.00;0.00;;;;;;;21.36;59.33;98408.41;8280884;28;20264;-79
2022/10/29 16:06:59;;;;;;;0.00;0.00;;;;;;;21.28;59.32;98411.66;8280790;28;20236;-78
2022/10/29 16:11:06;;;;;;;0.00;0.00;;;;;;;21.21;60.01;98416.59;8281100;28;20505;-79
2022/10/29 16:15:13;;;;;;;0.00;0.00;;;;;;;21.19;60.42;98413.25;8280169;28;20402;-81
2022/10/29 16:19:16;;;;;;;0.00;0.00;;;;;;;21.12;60.12;98414.72;8280440;28;20240;-83
2022/10/29 16:23:20;;;;;;;0.00;0.00;;;;;;;21.05;60.76;98414.34;8280597;28;20279;-79
2022/10/29 16:27:23;;;;;;;0.00;0.00;;;;;;;20.98;60.83;98415.84;8280649;28;20387;-82
2022/10/29 16:31:27;;;;;;;0.00;0.00;;;;;;;20.92;61.53;98421.56;8280432;28;20295;-81
2022/10/29 16:35:30;;;;;;;0.00;0.00;;;;;;;20.84;61.88;98419.53;8280442;28;20241;-84
2022/10/29 16:39:34;;;;;;;0.00;0.00;;;;;;;20.72;62.04;98417.06;8280213;28;20237;-82
2022/10/29 16:43:37;;;;;;;0.00;0.00;;;;;;;20.69;62.88;98418.13;8280337;28;20230;-82
2022/10/29 16:47:40;;;;;;;0.00;0.00;;;;;;;20.66;62.96;98421.00;8280006;28;20236;-84
2022/10/29 16:51:43;;;;;;;0.00;0.00;;;;;;;20.68;62.99;98425.19;8280352;28;20242;-84
2022/10/29 16:55:47;;;;;;;0.00;0.00;;;;;;;20.60;63.62;98419.69;8280898;28;20229;-82
2022/10/29 16:59:50;;;;;;;0.00;0.00;;;;;;;20.54;63.75;98419.28;8281379;28;20244;-85
2022/10/29 17:03:53;;;;;;;0.00;0.00;;;;;;;20.49;63.52;98424.94;8281232;28;20245;-81
2022/10/29 17:07:56;;;;;;;0.00;0.00;;;;;;;20.42;64.21;98421.09;8286000;28;20233;-85
2022/10/29 17:12:00;;;;;;;0.00;0.00;;;;;;;20.35;63.79;98422.53;8288021;28;20536;-82
2022/10/29 17:16:06;;;;;;;0.00;0.00;;;;;;;20.25;63.87;98423.22;8288195;28;20301;-83
2022/10/29 17:20:10;;;;;;;0.00;0.00;;;;;;;20.26;64.43;98427.53;8287697;28;20256;-83
2022/10/29 17:24:12;;;;;;;0.00;0.00;;;;;;;20.15;64.65;98429.31;8287258;28;20245;-84
2022/10/29 17:28:16;;;;;;;0.00;0.00;;;;;;;20.10;64.49;98435.78;8287276;28;20241;-85
2022/10/29 17:32:19;;;;;;;0.00;0.00;;;;;;;20.04;64.56;98440.66;8286660;28;20248;-83
2022/10/29 17:36:22;;;;;;;0.00;0.00;;;;;;;20.01;65.09;98444.34;8286590;28;20440;-83
2022/10/29 17:40:25;;;;;;;0.00;0.00;;;;;;;19.96;64.68;98443.84;8286575;28;20229;-82
2022/10/29 17:44:30;;;;;;;0.00;0.00;;;;;;;19.83;65.53;98448.34;8286526;28;20229;-83
2022/10/29 17:48:34;;;;;;;0.00;0.00;;;;;;;19.76;65.13;98452.38;8286526;28;20233;-82
2022/10/29 17:52:36;;;;;;;0.00;0.00;;;;;;;19.79;65.35;98452.16;8286920;28;20237;-82
2022/10/29 17:56:39;;;;;;;0.00;0.00;;;;;;;19.77;65.62;98452.28;8286587;28;20248;-82
2022/10/29 18:00:43;;;;;;;0.00;0.00;;;;;;;19.75;65.28;98451.56;8286375;28;20237;-84
2022/10/29 18:04:46;;;;;;;0.00;0.00;;;;;;;19.78;65.62;98453.09;8286613;28;20245;-84
2022/10/29 18:08:49;;;;;;;0.00;0.00;;;;;;;19.75;65.33;98455.97;8286080;28;20535;-83
2022/10/29 18:12:51;;;;;;;0.00;0.00;;;;;;;19.66;65.85;98457.47;8286292;28;20237;-81
2022/10/29 18:16:56;;;;;;;0.00;0.00;;;;;;;19.68;65.61;98448.50;8285310;28;20228;-82
2022/10/29 18:20:58;;;;;;;0.00;0.00;;;;;;;19.63;65.38;98449.78;8285700;28;20555;-81
2022/10/29 18:25:01;;;;;;;0.00;0.00;;;;;;;19.60;65.65;98448.25;8285922;28;20280;-82
2022/10/29 18:29:06;;;;;;;0.00;0.00;;;;;;;19.57;65.29;98450.25;8285641;28;20236;-84
2022/10/29 18:33:10;;;;;;;0.00;0.00;;;;;;;19.59;65.09;98450.97;8285520;28;20244;-83
2022/10/29 18:37:18;;;;;;;0.00;0.00;;;;;;;19.54;65.28;98454.78;8285214;28;20233;-84
2022/10/29 18:41:21;;;;;;;0.00;0.00;;;;;;;19.58;65.13;98450.16;8284887;28;20238;-81
2022/10/29 18:45:24;;;;;;;0.00;0.00;;;;;;;19.54;65.38;98453.94;8284671;28;20232;-82
2022/10/29 18:49:28;;;;;;;0.00;0.00;;;;;;;19.51;65.05;98456.78;8284433;28;20271;-82
2022/10/29 18:53:31;;;;;;;0.00;0.00;;;;;;;19.76;70.59;98452.38;8284398;28;20236;-79
2022/10/29 18:57:34;;;;;;;0.00;0.00;;;;;;;19.65;65.82;98454.00;8284371;28;20240;-79
2022/10/29 19:01:37;;;;;;;0.00;0.00;;;;;;;19.52;65.29;98450.59;8283893;28;20278;-78
2022/10/29 19:05:42;;;;;;;0.00;0.00;;;;;;;19.83;68.07;98458.88;8283712;28;20528;-78
2022/10/29 19:09:44;;;;;;;0.00;0.00;;;;;;;19.62;64.85;98445.50;8283351;28;20241;-82
2022/10/29 19:13:50;;;;;;;0.00;0.00;;;;;;;19.48;64.11;98436.84;8283790;28;20394;-83
2022/10/29 19:17:53;;;;;;;0.00;0.00;;;;;;;19.47;64.30;98442.22;8283577;28;20581;-84
2022/10/29 19:21:57;;;;;;;0.00;0.00;;;;;;;19.40;64.37;98433.09;8283333;28;20314;-84